MEL weather

Melbourne International Airport
Melbourne, Victoria, Australia

Public forecast

Using degrees Celsius for public forecast. Weather courtesy of forecast.io.

METAR (pilot weather report)

Retrieved 2019/01/23 17:30 UTC (12 minutes ago):

YMML 231730Z 26007KT 9999 FEW009 BKN011 18/15 Q1014 TEMPO 1930/2030 8000 HZ BKN006

TAF (pilot weather forecast)

Retrieved 2019/01/23 12:37 UTC (5 hours ago):

TAF YMML 231116Z 2312/2418 24006KT 9999 SCT015 BECMG 2313/2315 29006KT 9999 SCT006 BKN008 BECMG 2322/2324 06006KT CAVOK FM241100 01010KT CAVOK BECMG 2414/2416 36016G26KT CAVOK TEMPO 2312/2315 BKN015 TEMPO 2315/2322 5000 HZ BKN005